createdAt,value
2023-04-21T00:01:15.249Z,6.06
2023-04-21T00:03:43.711Z,6.03
2023-04-21T00:06:14.574Z,6.00
2023-04-21T00:08:42.167Z,5.99
2023-04-21T00:11:09.646Z,5.97
2023-04-21T00:13:39.617Z,5.98
2023-04-21T00:16:13.210Z,5.95
2023-04-21T00:18:40.609Z,5.95
2023-04-21T00:21:08.496Z,5.91
2023-04-21T00:23:37.185Z,5.93
2023-04-21T00:26:06.173Z,5.90
2023-04-21T00:28:36.011Z,5.87
2023-04-21T00:31:07.270Z,5.89
2023-04-21T00:33:35.948Z,5.89
2023-04-21T00:36:04.881Z,5.91
2023-04-21T00:38:32.261Z,5.91
2023-04-21T00:41:01.910Z,5.86
2023-04-21T00:43:30.049Z,5.77
2023-04-21T00:45:58.538Z,5.71
2023-04-21T00:48:26.448Z,5.63
2023-04-21T00:50:59.030Z,5.60
2023-04-21T00:53:26.309Z,5.55
2023-04-21T00:55:53.793Z,5.54
2023-04-21T00:58:21.623Z,5.51
2023-04-21T01:00:49.604Z,5.50
2023-04-21T01:03:18.370Z,5.48
2023-04-21T01:05:47.398Z,5.50
2023-04-21T01:08:16.190Z,5.50
2023-04-21T01:10:46.475Z,5.48
2023-04-21T01:13:14.085Z,5.45
2023-04-21T01:15:42.328Z,5.38
2023-04-21T01:18:11.164Z,5.42
2023-04-21T01:20:46.336Z,5.39
2023-04-21T01:23:15.556Z,5.36
2023-04-21T01:25:45.075Z,5.30
2023-04-21T01:28:16.705Z,5.30
2023-04-21T01:30:50.664Z,5.29
2023-04-21T01:33:18.922Z,5.21
2023-04-21T01:35:46.800Z,5.20
2023-04-21T01:38:14.194Z,5.19
2023-04-21T01:40:43.768Z,5.18
2023-04-21T01:43:10.897Z,5.12
2023-04-21T01:45:40.495Z,5.09
2023-04-21T01:48:09.565Z,5.07
2023-04-21T01:50:38.124Z,5.05
2023-04-21T01:53:11.073Z,5.07
2023-04-21T01:55:40.952Z,5.02
2023-04-21T01:58:12.512Z,5.02
2023-04-21T02:00:43.787Z,5.01
2023-04-21T02:03:14.117Z,4.99
2023-04-21T02:05:46.107Z,4.99
2023-04-21T02:08:15.844Z,4.98
2023-04-21T02:10:45.459Z,4.95
2023-04-21T02:13:16.192Z,4.93
2023-04-21T02:15:46.412Z,4.94
2023-04-21T02:18:16.974Z,4.94
2023-04-21T02:20:45.847Z,4.95
2023-04-21T02:23:14.432Z,4.98
2023-04-21T02:25:44.414Z,4.99
2023-04-21T02:28:13.186Z,5.22
2023-04-21T02:30:42.652Z,5.17
2023-04-21T02:33:11.533Z,5.36
2023-04-21T02:35:39.197Z,5.35
2023-04-21T02:38:09.443Z,5.36
2023-04-21T02:40:39.153Z,5.34
2023-04-21T02:43:06.831Z,5.33
2023-04-21T02:45:34.804Z,5.28
2023-04-21T02:48:02.547Z,5.24
2023-04-21T02:50:32.324Z,5.19
2023-04-21T02:52:59.849Z,5.15
2023-04-21T02:55:27.836Z,5.10
2023-04-21T02:57:55.000Z,5.08
2023-04-21T03:00:26.148Z,5.09
2023-04-21T03:02:56.674Z,5.08
2023-04-21T03:05:24.967Z,5.03
2023-04-21T03:07:52.090Z,5.01
2023-04-21T03:10:19.877Z,4.99
2023-04-21T03:12:49.269Z,4.94
2023-04-21T03:15:19.681Z,4.88
2023-04-21T03:17:47.981Z,4.87
2023-04-21T03:20:16.481Z,4.83
2023-04-21T03:22:43.757Z,4.84
2023-04-21T03:25:12.132Z,4.81
2023-04-21T03:27:41.588Z,4.81
2023-04-21T03:30:10.953Z,4.77
2023-04-21T03:32:40.626Z,4.74
2023-04-21T03:35:08.550Z,4.71
2023-04-21T03:37:35.914Z,4.70
2023-04-21T03:40:08.867Z,4.73
2023-04-21T03:42:36.836Z,4.70
2023-04-21T03:45:10.768Z,4.65
2023-04-21T03:47:38.785Z,4.65
2023-04-21T03:50:08.518Z,4.65
2023-04-21T03:52:39.400Z,4.62
2023-04-21T03:55:12.732Z,4.59
2023-04-21T03:57:43.009Z,4.59
2023-04-21T04:00:11.649Z,4.60
2023-04-21T04:02:46.617Z,4.58
2023-04-21T04:05:14.836Z,4.58
2023-04-21T04:07:43.566Z,4.56
2023-04-21T04:10:12.740Z,4.55
2023-04-21T04:12:41.812Z,4.54
2023-04-21T04:15:12.244Z,4.56
2023-04-21T04:17:39.851Z,4.56
2023-04-21T04:20:09.625Z,4.58
2023-04-21T04:22:37.315Z,4.62
2023-04-21T04:25:06.289Z,4.69
2023-04-21T04:27:35.191Z,4.76
2023-04-21T04:30:03.679Z,4.83
2023-04-21T04:32:33.726Z,4.94
2023-04-21T04:35:02.929Z,5.01
2023-04-21T04:37:34.640Z,5.09
2023-04-21T04:40:02.432Z,5.18
2023-04-21T04:42:32.943Z,5.27
2023-04-21T04:45:03.495Z,5.39
2023-04-21T04:47:30.659Z,5.49
2023-04-21T04:49:58.198Z,5.65
2023-04-21T04:52:25.659Z,5.78
2023-04-21T04:54:54.361Z,5.90
2023-04-21T04:57:21.832Z,6.00
2023-04-21T04:59:49.324Z,6.11
2023-04-21T05:02:16.676Z,6.19
2023-04-21T05:04:44.377Z,6.39
2023-04-21T05:07:11.620Z,6.51
2023-04-21T05:09:39.045Z,6.77
2023-04-21T05:12:06.195Z,7.25
2023-04-21T05:14:36.047Z,7.45
2023-04-21T05:17:03.938Z,7.48
2023-04-21T05:19:31.486Z,7.65
2023-04-21T05:22:00.909Z,7.76
2023-04-21T05:24:29.275Z,7.88
2023-04-21T05:26:58.840Z,8.00
2023-04-21T05:29:26.366Z,8.35
2023-04-21T05:31:53.523Z,8.49
2023-04-21T05:34:21.729Z,8.64
2023-04-21T05:36:49.229Z,8.82
2023-04-21T05:39:18.311Z,9.06
2023-04-21T05:41:46.104Z,9.35
2023-04-21T05:44:13.920Z,9.49
2023-04-21T05:46:41.510Z,9.59
2023-04-21T05:49:11.967Z,10.09
2023-04-21T05:51:39.260Z,10.59
2023-04-21T05:54:06.914Z,10.67
2023-04-21T05:56:34.956Z,10.61
2023-04-21T05:59:02.351Z,10.71
2023-04-21T06:01:32.133Z,11.24
2023-04-21T06:04:00.009Z,12.39
2023-04-21T06:06:29.622Z,12.52
2023-04-21T06:08:57.854Z,12.40
2023-04-21T06:11:25.054Z,12.22
2023-04-21T06:13:58.464Z,12.09
2023-04-21T06:16:28.168Z,12.04
2023-04-21T06:18:59.188Z,12.27
2023-04-21T06:21:26.291Z,12.61
2023-04-21T06:23:56.605Z,12.83
2023-04-21T06:26:24.076Z,12.74
2023-04-21T06:28:52.446Z,13.05
2023-04-21T06:31:20.070Z,13.22
2023-04-21T06:33:47.826Z,13.15
2023-04-21T06:36:18.228Z,13.14
2023-04-21T06:38:48.235Z,14.29
2023-04-21T06:41:18.857Z,15.41
2023-04-21T06:43:46.649Z,17.19
2023-04-21T06:46:17.010Z,18.49
2023-04-21T06:48:47.731Z,19.49
2023-04-21T06:51:17.515Z,20.20
2023-04-21T06:53:49.370Z,21.13
2023-04-21T06:56:16.834Z,21.69
2023-04-21T06:58:44.397Z,22.14
2023-04-21T07:01:11.588Z,22.65
2023-04-21T07:03:39.035Z,23.18
2023-04-21T07:06:06.591Z,23.26
2023-04-21T07:08:33.953Z,22.67
2023-04-21T07:11:01.224Z,23.07
2023-04-21T07:13:28.613Z,23.78
2023-04-21T07:15:57.896Z,24.18
2023-04-21T07:18:26.422Z,24.23
2023-04-21T07:20:53.529Z,24.19
2023-04-21T07:23:21.177Z,24.55
2023-04-21T07:25:48.239Z,24.65
2023-04-21T07:28:19.977Z,25.20
2023-04-21T07:30:47.113Z,25.71
2023-04-21T07:33:14.482Z,25.75
2023-04-21T07:35:43.761Z,25.80
2023-04-21T07:38:11.198Z,25.87
2023-04-21T07:40:38.359Z,26.39
2023-04-21T07:43:05.795Z,26.19
2023-04-21T07:45:32.800Z,26.44
2023-04-21T07:48:00.246Z,26.60
2023-04-21T07:50:27.516Z,26.85
2023-04-21T07:52:57.134Z,26.29
2023-04-21T07:55:24.151Z,26.19
2023-04-21T07:57:51.612Z,25.28
2023-04-21T08:00:18.752Z,24.12
2023-04-21T08:02:46.220Z,22.57
2023-04-21T08:05:13.545Z,22.42
2023-04-21T08:07:46.162Z,22.47
2023-04-21T08:10:13.247Z,22.51
2023-04-21T08:12:40.674Z,23.56
2023-04-21T08:15:12.596Z,24.42
2023-04-21T08:17:40.104Z,22.99
2023-04-21T08:20:07.635Z,21.46
2023-04-21T08:22:36.683Z,20.48
2023-04-21T08:25:05.771Z,22.33
2023-04-21T08:27:33.276Z,23.74
2023-04-21T08:30:00.611Z,24.41
2023-04-21T08:32:28.060Z,23.30
2023-04-21T08:34:55.372Z,24.60
2023-04-21T08:37:25.719Z,23.99
2023-04-21T08:39:53.792Z,25.15
2023-04-21T08:42:23.545Z,25.05
2023-04-21T08:44:50.734Z,26.03
2023-04-21T08:47:18.373Z,25.18
2023-04-21T08:49:46.046Z,24.86
2023-04-21T08:52:14.622Z,22.76
2023-04-21T08:54:41.809Z,24.48
2023-04-21T08:57:15.442Z,25.22
2023-04-21T08:59:45.443Z,24.04
2023-04-21T09:02:17.358Z,24.37
2023-04-21T09:04:45.994Z,24.31
2023-04-21T09:07:31.218Z,24.26
2023-04-21T09:09:58.519Z,24.51
2023-04-21T09:12:25.971Z,25.24
2023-04-21T09:14:53.091Z,24.50
2023-04-21T09:17:22.411Z,23.45
2023-04-21T09:19:52.130Z,22.00
2023-04-21T09:22:19.800Z,21.33
2023-04-21T09:24:47.495Z,20.67
2023-04-21T09:27:16.508Z,19.53
2023-04-21T09:29:48.430Z,19.47
2023-04-21T09:32:22.172Z,19.51
2023-04-21T09:34:58.379Z,19.15
2023-04-21T09:37:32.023Z,18.70
2023-04-21T09:42:31.333Z,18.71
2023-04-21T09:47:36.227Z,19.38
2023-04-21T09:50:04.722Z,19.73
2023-04-21T09:52:34.782Z,20.01
2023-04-21T09:55:04.388Z,20.62
2023-04-21T09:57:32.874Z,21.72
2023-04-21T10:00:01.534Z,21.90
2023-04-21T10:02:30.908Z,21.93
2023-04-21T10:05:01.163Z,22.69
2023-04-21T10:07:28.758Z,22.02
2023-04-21T10:09:56.631Z,22.09
2023-04-21T10:12:25.183Z,22.62
2023-04-21T10:14:53.647Z,22.83
2023-04-21T10:17:27.952Z,22.42
2023-04-21T10:19:57.863Z,22.69
2023-04-21T10:22:28.866Z,23.09
2023-04-21T10:24:59.964Z,22.62
2023-04-21T10:27:41.149Z,22.87
2023-04-21T10:30:26.194Z,22.29
2023-04-21T10:33:12.884Z,22.27
2023-04-21T10:36:00.193Z,21.59
2023-04-21T10:38:40.978Z,22.16
2023-04-21T10:41:27.661Z,21.68
2023-04-21T10:43:59.545Z,21.68
2023-04-21T10:46:40.705Z,21.45
2023-04-21T10:49:09.388Z,21.11
2023-04-21T10:51:55.283Z,20.90
2023-04-21T10:54:29.790Z,21.08
2023-04-21T10:56:59.003Z,21.33
2023-04-21T10:59:27.333Z,21.50
2023-04-21T11:01:54.842Z,21.20
2023-04-21T11:04:23.435Z,21.19
2023-04-21T11:07:17.225Z,20.79
2023-04-21T11:09:47.861Z,20.04
2023-04-21T11:12:15.955Z,20.25
2023-04-21T11:14:43.984Z,20.00
2023-04-21T11:17:14.452Z,20.53
2023-04-21T11:19:42.180Z,20.81
2023-04-21T11:22:09.239Z,20.58
2023-04-21T11:24:37.115Z,20.55
2023-04-21T11:27:08.099Z,20.69
2023-04-21T11:29:35.545Z,20.72
2023-04-21T11:32:06.146Z,20.61
2023-04-21T11:34:33.625Z,20.59
2023-04-21T11:37:00.668Z,20.73
2023-04-21T11:39:28.166Z,20.87
2023-04-21T11:41:55.150Z,20.69
2023-04-21T11:44:35.164Z,20.41
2023-04-21T11:47:17.705Z,20.08
2023-04-21T11:49:46.751Z,20.02
2023-04-21T11:52:45.723Z,20.26
2023-04-21T11:55:20.136Z,20.21
2023-04-21T11:57:47.156Z,20.03
2023-04-21T12:00:15.578Z,20.25
2023-04-21T12:02:43.339Z,20.36
2023-04-21T12:05:11.942Z,20.41
2023-04-21T12:07:38.927Z,20.33
2023-04-21T12:10:10.808Z,20.26
2023-04-21T12:12:41.230Z,19.96
2023-04-21T12:15:09.566Z,19.98
2023-04-21T12:17:55.412Z,19.98
2023-04-21T12:20:23.774Z,20.03
2023-04-21T12:22:51.039Z,20.15
2023-04-21T12:25:18.536Z,20.13
2023-04-21T12:27:52.785Z,20.24
2023-04-21T12:30:20.916Z,20.17
2023-04-21T12:32:48.293Z,20.07
2023-04-21T12:35:16.177Z,19.99
2023-04-21T12:37:43.261Z,20.20
2023-04-21T12:40:15.868Z,20.14
2023-04-21T12:42:42.908Z,20.19
2023-04-21T12:45:10.801Z,20.08
2023-04-21T12:47:37.808Z,20.04
2023-04-21T12:50:05.353Z,19.84
2023-04-21T12:52:32.359Z,19.77
2023-04-21T12:54:59.745Z,19.53
2023-04-21T12:57:26.746Z,19.43
2023-04-21T12:59:55.383Z,19.36
2023-04-21T13:02:22.880Z,19.32
2023-04-21T13:04:50.650Z,19.44
2023-04-21T13:07:21.534Z,19.51
2023-04-21T13:09:50.919Z,19.36
2023-04-21T13:12:18.448Z,19.32
2023-04-21T13:14:46.024Z,19.37
2023-04-21T13:17:13.378Z,19.45
2023-04-21T13:19:43.313Z,19.42
2023-04-21T13:22:10.550Z,19.34
2023-04-21T13:24:38.077Z,19.43
2023-04-21T13:27:05.332Z,19.45
2023-04-21T13:29:34.616Z,19.25
2023-04-21T13:32:02.512Z,19.08
2023-04-21T13:34:30.600Z,19.20
2023-04-21T13:36:58.016Z,19.25
2023-04-21T13:39:25.884Z,19.20
2023-04-21T13:41:54.234Z,19.17
2023-04-21T13:44:21.763Z,19.35
2023-04-21T13:46:48.915Z,19.41
2023-04-21T13:49:16.545Z,19.28
2023-04-21T13:51:43.520Z,19.23
2023-04-21T13:54:10.998Z,19.22
2023-04-21T13:56:38.542Z,19.23
2023-04-21T13:59:10.825Z,19.03
2023-04-21T14:01:38.005Z,19.01
2023-04-21T14:04:05.812Z,19.02
2023-04-21T14:06:33.265Z,19.18
2023-04-21T14:09:00.942Z,19.24
2023-04-21T14:11:28.352Z,19.17
2023-04-21T14:14:08.340Z,19.15
2023-04-21T14:16:36.591Z,19.24
2023-04-21T14:19:04.179Z,19.27
2023-04-21T14:21:33.028Z,19.38
2023-04-21T14:24:00.407Z,19.28
2023-04-21T14:26:27.464Z,19.18
2023-04-21T14:28:54.806Z,19.28
2023-04-21T14:31:22.502Z,19.32
2023-04-21T14:33:52.424Z,19.20
2023-04-21T14:36:19.966Z,19.16
2023-04-21T14:38:47.373Z,19.13
2023-04-21T14:41:14.706Z,19.19
2023-04-21T14:43:42.233Z,19.23
2023-04-21T14:46:11.624Z,19.18
2023-04-21T14:48:39.307Z,19.10
2023-04-21T14:51:09.414Z,19.02
2023-04-21T14:53:37.332Z,18.97
2023-04-21T14:56:04.387Z,18.97
2023-04-21T14:58:31.565Z,18.96
2023-04-21T15:01:01.769Z,18.93
2023-04-21T15:03:29.151Z,18.89
2023-04-21T15:05:56.345Z,18.85
2023-04-21T15:08:23.814Z,18.92
2023-04-21T15:10:51.384Z,18.96
2023-04-21T15:13:18.927Z,18.96
2023-04-21T15:15:46.081Z,18.96
2023-04-21T15:18:14.196Z,18.93
2023-04-21T15:20:45.511Z,18.83
2023-04-21T15:23:17.676Z,18.89
2023-04-21T15:25:44.741Z,18.93
2023-04-21T15:28:13.122Z,18.87
2023-04-21T15:30:40.412Z,18.77
2023-04-21T15:33:08.646Z,18.78
2023-04-21T15:35:35.565Z,18.69
2023-04-21T15:38:02.913Z,18.71
2023-04-21T15:40:29.842Z,18.67
2023-04-21T15:42:57.067Z,18.68
2023-04-21T15:45:24.103Z,18.72
2023-04-21T15:47:51.592Z,18.80
2023-04-21T15:50:18.625Z,18.78
2023-04-21T15:52:46.138Z,18.79
2023-04-21T15:55:13.280Z,18.72
2023-04-21T15:57:40.942Z,18.66
2023-04-21T16:00:10.904Z,18.53
2023-04-21T16:02:38.768Z,18.41
2023-04-21T16:05:08.886Z,18.30
2023-04-21T16:07:36.720Z,18.22
2023-04-21T16:10:04.255Z,18.14
2023-04-21T16:12:32.433Z,17.99
2023-04-21T16:15:09.326Z,17.94
2023-04-21T16:17:46.498Z,17.84
2023-04-21T16:20:16.301Z,17.75
2023-04-21T16:22:43.727Z,17.65
2023-04-21T16:25:16.114Z,17.59
2023-04-21T16:27:43.575Z,17.45
2023-04-21T16:30:10.932Z,17.38
2023-04-21T16:32:38.632Z,17.31
2023-04-21T16:35:07.959Z,17.16
2023-04-21T16:37:37.251Z,17.01
2023-04-21T16:40:06.540Z,16.92
2023-04-21T16:42:34.306Z,16.96
2023-04-21T16:45:03.613Z,16.98
2023-04-21T16:47:31.799Z,17.06
2023-04-21T16:49:59.080Z,17.08
2023-04-21T16:52:29.545Z,17.10
2023-04-21T16:54:56.844Z,17.03
2023-04-21T16:57:25.233Z,16.88
2023-04-21T16:59:53.008Z,16.83
2023-04-21T17:02:25.454Z,16.76
2023-04-21T17:04:52.990Z,16.63
2023-04-21T17:07:20.571Z,16.55
2023-04-21T17:09:47.810Z,16.42
2023-04-21T17:12:15.273Z,16.42
2023-04-21T17:14:44.853Z,16.29
2023-04-21T17:17:12.302Z,16.02
2023-04-21T17:19:41.391Z,15.87
2023-04-21T17:22:09.025Z,15.73
2023-04-21T17:24:51.839Z,15.61
2023-04-21T17:27:20.983Z,15.65
2023-04-21T17:29:48.521Z,15.60
2023-04-21T17:32:18.086Z,15.54
2023-04-21T17:34:45.681Z,15.53
2023-04-21T17:37:13.139Z,15.45
2023-04-21T17:39:40.275Z,15.30
2023-04-21T17:42:10.253Z,15.08
2023-04-21T17:44:37.486Z,14.98
2023-04-21T17:47:08.390Z,14.89
2023-04-21T17:49:35.862Z,14.68
2023-04-21T17:52:03.597Z,14.56
2023-04-21T17:54:37.677Z,14.36
2023-04-21T17:57:07.682Z,14.26
2023-04-21T17:59:34.784Z,14.07
2023-04-21T18:02:05.722Z,13.91
2023-04-21T18:04:34.628Z,13.85
2023-04-21T18:07:05.809Z,13.75
2023-04-21T18:09:32.912Z,13.62
2023-04-21T18:12:00.348Z,13.51
2023-04-21T18:14:27.703Z,13.33
2023-04-21T18:16:57.583Z,13.16
2023-04-21T18:19:24.859Z,13.03
2023-04-21T18:21:52.450Z,12.90
2023-04-21T18:24:19.519Z,12.78
2023-04-21T18:26:47.072Z,12.66
2023-04-21T18:29:18.377Z,12.53
2023-04-21T18:31:46.131Z,12.41
2023-04-21T18:34:14.832Z,12.35
2023-04-21T18:36:45.903Z,12.27
2023-04-21T18:39:13.838Z,12.19
2023-04-21T18:41:42.362Z,12.10
2023-04-21T18:44:09.914Z,12.00
2023-04-21T18:46:38.257Z,11.92
2023-04-21T18:49:06.024Z,11.83
2023-04-21T18:51:33.728Z,11.75
2023-04-21T18:54:06.578Z,11.70
2023-04-21T18:56:38.412Z,11.65
2023-04-21T18:59:08.537Z,11.56
2023-04-21T19:01:38.219Z,11.47
2023-04-21T19:04:07.496Z,11.38
2023-04-21T19:06:35.738Z,11.28
2023-04-21T19:09:07.807Z,11.26
2023-04-21T19:11:38.305Z,11.23
2023-04-21T19:14:06.503Z,11.20
2023-04-21T19:16:35.820Z,11.19
2023-04-21T19:19:05.747Z,11.13
2023-04-21T19:21:33.806Z,11.04
2023-04-21T19:24:01.654Z,10.96
2023-04-21T19:26:30.643Z,10.89
2023-04-21T19:28:58.873Z,10.79
2023-04-21T19:31:30.639Z,10.75
2023-04-21T19:33:59.195Z,10.65
2023-04-21T19:36:30.759Z,10.57
2023-04-21T19:39:01.009Z,10.49
2023-04-21T19:41:32.856Z,10.40
2023-04-21T19:44:05.437Z,10.33
2023-04-21T19:46:39.884Z,10.30
2023-04-21T19:49:09.694Z,10.23
2023-04-21T19:51:37.465Z,10.20
2023-04-21T19:54:11.839Z,10.14
2023-04-21T19:56:43.399Z,10.08
2023-04-21T19:59:12.459Z,10.04
2023-04-21T20:01:44.017Z,10.05
2023-04-21T20:04:12.421Z,10.02
2023-04-21T20:06:41.775Z,9.95
2023-04-21T20:09:11.596Z,9.87
2023-04-21T20:11:43.027Z,9.83
2023-04-21T20:14:13.465Z,9.78
2023-04-21T20:16:46.221Z,9.72
2023-04-21T20:19:17.531Z,9.68
2023-04-21T20:21:49.735Z,9.62
2023-04-21T20:24:18.006Z,9.56
2023-04-21T20:26:48.687Z,9.54
2023-04-21T20:29:18.334Z,9.49
2023-04-21T20:31:50.229Z,9.43
2023-04-21T20:34:20.239Z,9.37
2023-04-21T20:36:50.265Z,9.29
2023-04-21T20:39:19.204Z,9.25
2023-04-21T20:41:50.943Z,9.18
2023-04-21T20:44:25.933Z,9.15
2023-04-21T20:46:54.576Z,9.15
2023-04-21T20:49:22.773Z,9.10
2023-04-21T20:51:59.294Z,9.09
2023-04-21T20:54:28.285Z,9.02
2023-04-21T20:56:57.433Z,8.95
2023-04-21T20:59:28.623Z,8.92
2023-04-21T21:02:07.426Z,8.88
2023-04-21T21:04:37.217Z,8.80
2023-04-21T21:07:07.772Z,8.74
2023-04-21T21:09:35.879Z,8.70
2023-04-21T21:12:07.241Z,8.65
2023-04-21T21:14:38.427Z,8.61
2023-04-21T21:17:09.819Z,8.57
2023-04-21T21:19:38.044Z,8.53
2023-04-21T21:22:08.562Z,8.53
2023-04-21T21:24:42.410Z,8.49
2023-04-21T21:27:15.125Z,8.46
2023-04-21T21:29:44.285Z,8.44
2023-04-21T21:32:12.172Z,8.39
2023-04-21T21:34:43.265Z,8.37
2023-04-21T21:37:11.925Z,8.32
2023-04-21T21:39:45.439Z,8.33
2023-04-21T21:42:15.830Z,8.28
2023-04-21T21:44:44.454Z,8.24
2023-04-21T21:47:11.989Z,8.17
2023-04-21T21:49:41.430Z,8.12
2023-04-21T21:52:15.150Z,8.08
2023-04-21T21:54:47.401Z,8.02
2023-04-21T21:57:14.859Z,7.98
2023-04-21T21:59:43.142Z,7.94
2023-04-21T22:02:11.388Z,7.90
2023-04-21T22:04:42.032Z,7.86
2023-04-21T22:07:11.224Z,7.81
2023-04-21T22:09:42.249Z,7.78
2023-04-21T22:12:10.660Z,7.76
2023-04-21T22:14:43.954Z,7.73
2023-04-21T22:17:13.168Z,7.67
2023-04-21T22:19:42.088Z,7.64
2023-04-21T22:22:11.989Z,7.57
2023-04-21T22:24:40.664Z,7.55
2023-04-21T22:27:10.474Z,7.54
2023-04-21T22:29:39.267Z,7.54
2023-04-21T22:32:09.838Z,7.52
2023-04-21T22:34:39.320Z,7.48
2023-04-21T22:37:09.250Z,7.49
2023-04-21T22:39:38.558Z,7.48
2023-04-21T22:42:09.828Z,7.46
2023-04-21T22:44:37.360Z,7.47
2023-04-21T22:47:05.935Z,7.46
2023-04-21T22:49:33.707Z,7.42
2023-04-21T22:52:08.559Z,7.46
2023-04-21T22:54:36.330Z,7.37
2023-04-21T22:57:04.317Z,7.34
2023-04-21T22:59:45.456Z,7.26
2023-04-21T23:02:17.431Z,7.21
2023-04-21T23:04:48.485Z,7.20
2023-04-21T23:07:19.784Z,7.13
2023-04-21T23:09:47.598Z,7.10
2023-04-21T23:12:20.687Z,7.04
2023-04-21T23:14:49.019Z,7.00
2023-04-21T23:17:18.897Z,6.96
2023-04-21T23:19:51.004Z,6.91
2023-04-21T23:22:24.193Z,6.88
2023-04-21T23:24:56.230Z,6.84
2023-04-21T23:27:31.156Z,6.82
2023-04-21T23:30:05.597Z,6.80
2023-04-21T23:32:35.448Z,6.78
2023-04-21T23:35:02.681Z,6.74
2023-04-21T23:37:43.631Z,6.71
2023-04-21T23:40:23.272Z,6.67
2023-04-21T23:42:56.903Z,6.63
2023-04-21T23:45:31.618Z,6.67
2023-04-21T23:47:59.327Z,6.62
2023-04-21T23:50:34.365Z,6.58
2023-04-21T23:53:02.849Z,6.53
2023-04-21T23:55:32.830Z,6.51
2023-04-21T23:58:01.307Z,6.47
